Time;durP1;ratioP1;P1;durP2;ratioP2;P2;SDS_P1;SDS_P2;PMS_P1;PMS_P2;Temp;Humidity;BMP_temperature;BMP_pressure;BME280_temperature;BME280_humidity;BME280_pressure;Samples;Min_cycle;Max_cycle;Signal;HPM_P1;HPM_P2
2023/05/15 00:00:09;;;;;;;6.38;4.63;;;;;;;;;;5020292;28;20069;-79
2023/05/15 00:02:38;;;;;;;8.30;5.03;;;;;;;;;;5023985;28;20030;-78
2023/05/15 00:05:04;;;;;;;7.25;5.13;;;;;;;;;;5027915;28;20519;-79
2023/05/15 00:07:29;;;;;;;8.68;5.40;;;;;;;;;;5021001;28;20062;-78
2023/05/15 00:09:54;;;;;;;5.72;4.40;;;;;;;;;;5023626;28;20044;-79
2023/05/15 00:12:20;;;;;;;8.45;5.25;;;;;;;;;;5022406;28;20056;-79
2023/05/15 00:14:45;;;;;;;8.35;5.72;;;;;;;;;;5022798;28;20064;-79
2023/05/15 00:17:11;;;;;;;5.72;4.22;;;;;;;;;;5024095;28;20038;-78
2023/05/15 00:19:36;;;;;;;5.38;4.43;;;;;;;;;;5020252;28;20133;-79
2023/05/15 00:22:01;;;;;;;6.60;4.85;;;;;;;;;;5022886;28;20143;-79
2023/05/15 00:24:27;;;;;;;7.00;5.28;;;;;;;;;;5024274;28;20022;-79
2023/05/15 00:26:52;;;;;;;10.13;6.22;;;;;;;;;;5020459;28;20041;-79
2023/05/15 00:29:17;;;;;;;7.15;5.03;;;;;;;;;;5015066;28;20037;-79
2023/05/15 00:31:43;;;;;;;6.43;4.93;;;;;;;;;;5020504;28;20036;-79
2023/05/15 00:34:08;;;;;;;8.60;5.55;;;;;;;;;;5024276;28;20030;-79
2023/05/15 00:36:36;;;;;;;7.55;5.90;;;;;;;;;;5022600;28;20029;-80
2023/05/15 00:39:01;;;;;;;8.45;5.88;;;;;;;;;;5018882;28;20507;-79
2023/05/15 00:41:27;;;;;;;6.30;5.03;;;;;;;;;;5020992;28;20097;-79
2023/05/15 00:43:54;;;;;;;6.90;5.53;;;;;;;;;;5022967;28;20041;-79
2023/05/15 00:46:20;;;;;;;10.00;6.70;;;;;;;;;;5024142;28;20025;-79
2023/05/15 00:48:47;;;;;;;6.70;5.22;;;;;;;;;;5020168;28;20107;-79
2023/05/15 00:51:12;;;;;;;8.05;6.28;;;;;;;;;;5013054;28;20791;-79
2023/05/15 00:53:38;;;;;;;7.60;6.07;;;;;;;;;;5024288;28;20037;-79
2023/05/15 00:56:04;;;;;;;7.68;5.65;;;;;;;;;;5016176;28;20070;-79
2023/05/15 00:58:30;;;;;;;8.73;5.68;;;;;;;;;;5023370;28;20052;-79
2023/05/15 01:00:56;;;;;;;7.82;5.28;;;;;;;;;;5025573;28;20473;-79
2023/05/15 01:03:21;;;;;;;6.82;5.25;;;;;;;;;;5024273;28;20041;-79
2023/05/15 01:05:46;;;;;;;6.95;5.30;;;;;;;;;;5026042;28;20038;-79
2023/05/15 01:08:30;;;;;;;7.75;5.90;;;;;;;;;;5023768;28;20033;-79
2023/05/15 01:10:57;;;;;;;7.53;6.18;;;;;;;;;;5021250;28;20038;-78
2023/05/15 01:13:23;;;;;;;10.85;6.93;;;;;;;;;;5024480;28;20040;-79
2023/05/15 01:15:48;;;;;;;6.45;5.60;;;;;;;;;;5007215;28;20116;-78
2023/05/15 01:18:14;;;;;;;6.53;5.40;;;;;;;;;;5025502;28;20045;-78
2023/05/15 01:21:02;;;;;;;8.15;6.25;;;;;;;;;;5024701;28;20037;-79
2023/05/15 01:23:37;;;;;;;7.00;5.07;;;;;;;;;;4978796;28;20096;-79
2023/05/15 01:26:23;;;;;;;7.63;5.28;;;;;;;;;;5024058;28;20029;-78
2023/05/15 01:28:52;;;;;;;6.85;5.93;;;;;;;;;;5018716;28;20448;-79
2023/05/15 01:31:18;;;;;;;7.07;5.82;;;;;;;;;;5022778;28;20559;-78
2023/05/15 01:33:46;;;;;;;8.13;5.20;;;;;;;;;;5015641;28;20033;-79
2023/05/15 01:36:19;;;;;;;9.27;5.63;;;;;;;;;;5023996;28;20072;-78
2023/05/15 01:38:51;;;;;;;7.95;5.18;;;;;;;;;;5022808;28;20036;-78
2023/05/15 01:41:28;;;;;;;6.15;5.15;;;;;;;;;;5020441;28;20032;-79
2023/05/15 01:44:02;;;;;;;6.03;4.70;;;;;;;;;;5025896;28;20029;-79
2023/05/15 01:46:30;;;;;;;8.45;5.95;;;;;;;;;;5026473;28;20029;-79
2023/05/15 01:48:56;;;;;;;7.53;5.57;;;;;;;;;;5023368;28;20065;-79
2023/05/15 01:51:23;;;;;;;7.30;5.55;;;;;;;;;;5019233;28;20080;-80
2023/05/15 01:53:49;;;;;;;7.63;6.07;;;;;;;;;;5026701;28;20403;-79
2023/05/15 01:56:15;;;;;;;7.55;5.57;;;;;;;;;;4988828;28;20195;-79
2023/05/15 01:58:41;;;;;;;9.23;6.07;;;;;;;;;;5014351;28;20404;-79
2023/05/15 02:01:07;;;;;;;7.30;6.15;;;;;;;;;;5013028;28;20021;-80
2023/05/15 02:03:33;;;;;;;7.45;5.88;;;;;;;;;;5014602;28;20041;-80
2023/05/15 02:06:00;;;;;;;6.63;5.00;;;;;;;;;;5025936;28;20057;-80
2023/05/15 02:08:27;;;;;;;7.03;5.20;;;;;;;;;;5014925;28;20124;-79
2023/05/15 02:10:54;;;;;;;7.55;5.65;;;;;;;;;;5006685;28;20107;-79
2023/05/15 02:13:20;;;;;;;6.03;4.97;;;;;;;;;;5024503;28;20031;-79
2023/05/15 02:15:45;;;;;;;7.13;5.25;;;;;;;;;;5015123;28;20037;-79
2023/05/15 02:18:12;;;;;;;7.07;5.55;;;;;;;;;;5023982;28;20041;-80
2023/05/15 02:20:37;;;;;;;7.85;5.80;;;;;;;;;;5023080;28;20030;-79
2023/05/15 02:23:02;;;;;;;7.68;6.18;;;;;;;;;;5026056;28;20091;-80
2023/05/15 02:25:40;;;;;;;6.40;5.05;;;;;;;;;;5025167;28;20029;-79
2023/05/15 02:28:07;;;;;;;6.03;4.88;;;;;;;;;;5018439;28;20045;-78
2023/05/15 02:30:37;;;;;;;7.90;5.68;;;;;;;;;;5013705;28;20042;-79
2023/05/15 02:33:22;;;;;;;7.07;5.47;;;;;;;;;;5006488;28;20373;-78
2023/05/15 02:35:51;;;;;;;7.25;6.00;;;;;;;;;;5028311;28;20409;-78
2023/05/15 02:38:18;;;;;;;7.68;5.65;;;;;;;;;;5028248;28;20029;-78
2023/05/15 02:40:46;;;;;;;6.13;5.40;;;;;;;;;;5006109;28;20025;-78
2023/05/15 02:43:12;;;;;;;9.07;5.78;;;;;;;;;;5016033;28;20030;-78
2023/05/15 02:45:38;;;;;;;6.50;5.07;;;;;;;;;;5025738;28;20036;-78
2023/05/15 02:48:05;;;;;;;6.53;5.35;;;;;;;;;;5023467;28;20531;-78
2023/05/15 02:50:30;;;;;;;7.60;5.18;;;;;;;;;;5014545;28;20026;-79
2023/05/15 02:53:02;;;;;;;9.32;6.65;;;;;;;;;;5006112;28;20470;-79
2023/05/15 02:55:28;;;;;;;8.75;6.10;;;;;;;;;;5022855;28;20029;-79
2023/05/15 02:57:53;;;;;;;7.88;5.32;;;;;;;;;;5022107;28;20392;-79
2023/05/15 03:00:19;;;;;;;8.13;5.80;;;;;;;;;;5020443;28;20040;-78
2023/05/15 03:02:44;;;;;;;6.22;5.13;;;;;;;;;;4995401;28;20412;-79
2023/05/15 03:05:09;;;;;;;7.40;5.82;;;;;;;;;;5024846;28;20075;-79
2023/05/15 03:07:34;;;;;;;7.95;5.80;;;;;;;;;;5021292;28;20041;-79
2023/05/15 03:10:00;;;;;;;7.15;6.03;;;;;;;;;;5022939;28;20037;-79
2023/05/15 03:12:25;;;;;;;7.63;6.20;;;;;;;;;;5021697;28;20026;-79
2023/05/15 03:14:50;;;;;;;6.63;5.75;;;;;;;;;;5018208;28;20488;-79
2023/05/15 03:17:15;;;;;;;7.82;5.40;;;;;;;;;;5020698;28;20056;-78
2023/05/15 03:19:41;;;;;;;7.53;5.78;;;;;;;;;;5004745;28;20088;-80
2023/05/15 03:22:06;;;;;;;9.48;6.47;;;;;;;;;;5027995;28;20052;-80
2023/05/15 03:24:31;;;;;;;7.88;6.43;;;;;;;;;;5021163;28;20123;-81
2023/05/15 03:26:56;;;;;;;7.28;5.75;;;;;;;;;;5025741;28;20095;-81
2023/05/15 03:29:22;;;;;;;8.23;6.40;;;;;;;;;;5020250;28;20051;-81
2023/05/15 03:31:47;;;;;;;9.23;6.32;;;;;;;;;;5018134;28;20481;-80
2023/05/15 03:34:12;;;;;;;8.02;6.07;;;;;;;;;;5016212;28;20137;-81
2023/05/15 03:36:37;;;;;;;8.75;6.65;;;;;;;;;;5024626;28;20464;-81
2023/05/15 03:39:03;;;;;;;10.13;6.93;;;;;;;;;;5023580;28;20079;-81
2023/05/15 03:41:29;;;;;;;11.18;9.00;;;;;;;;;;5021336;28;20036;-80
2023/05/15 03:43:54;;;;;;;9.05;6.93;;;;;;;;;;5025512;28;20040;-81
2023/05/15 03:46:19;;;;;;;8.43;6.63;;;;;;;;;;5018616;28;20640;-80
2023/05/15 03:48:44;;;;;;;10.77;8.00;;;;;;;;;;5023526;28;20061;-80
2023/05/15 03:51:09;;;;;;;7.68;6.35;;;;;;;;;;5021763;28;20145;-80
2023/05/15 03:53:35;;;;;;;10.80;7.80;;;;;;;;;;5010248;28;20041;-78
2023/05/15 03:56:00;;;;;;;11.95;6.75;;;;;;;;;;5017853;28;20033;-79
2023/05/15 03:58:25;;;;;;;11.55;6.75;;;;;;;;;;5020008;28;20026;-79
2023/05/15 04:00:50;;;;;;;9.05;6.28;;;;;;;;;;5021807;28;20021;-79
2023/05/15 04:03:16;;;;;;;8.63;7.20;;;;;;;;;;5029163;28;20025;-80
2023/05/15 04:05:41;;;;;;;7.65;5.85;;;;;;;;;;5022103;28;20112;-79
2023/05/15 04:08:08;;;;;;;9.00;5.97;;;;;;;;;;5031813;28;20033;-80
2023/05/15 04:10:33;;;;;;;8.77;6.93;;;;;;;;;;5013519;28;20042;-80
2023/05/15 04:12:59;;;;;;;11.20;8.88;;;;;;;;;;5028738;28;20049;-80
2023/05/15 04:15:25;;;;;;;13.20;10.70;;;;;;;;;;5036493;28;20056;-80
2023/05/15 04:17:51;;;;;;;12.07;9.48;;;;;;;;;;5028955;28;20121;-79
2023/05/15 04:20:17;;;;;;;9.88;7.97;;;;;;;;;;5025863;28;20112;-78
2023/05/15 04:22:43;;;;;;;9.23;8.18;;;;;;;;;;5027159;28;20033;-79
2023/05/15 04:25:09;;;;;;;9.65;7.13;;;;;;;;;;5027127;28;20068;-80
2023/05/15 04:27:35;;;;;;;9.02;6.57;;;;;;;;;;5036309;28;20034;-80
2023/05/15 04:30:00;;;;;;;6.78;5.65;;;;;;;;;;5029717;28;20092;-80
2023/05/15 04:32:26;;;;;;;8.13;6.60;;;;;;;;;;5030382;28;20157;-79
2023/05/15 04:34:51;;;;;;;7.90;6.18;;;;;;;;;;5037279;28;20030;-80
2023/05/15 04:37:17;;;;;;;9.48;7.10;;;;;;;;;;5034047;28;20034;-80
2023/05/15 04:39:42;;;;;;;10.77;7.28;;;;;;;;;;5035032;28;20042;-80
2023/05/15 04:42:07;;;;;;;9.73;6.78;;;;;;;;;;5033449;28;20033;-81
2023/05/15 04:44:32;;;;;;;9.13;6.90;;;;;;;;;;5035717;28;20072;-80
2023/05/15 04:46:57;;;;;;;7.75;5.90;;;;;;;;;;5041266;28;20032;-80
2023/05/15 04:49:23;;;;;;;9.02;6.13;;;;;;;;;;5035543;28;20037;-80
2023/05/15 04:51:48;;;;;;;8.52;6.75;;;;;;;;;;5036279;28;20027;-80
2023/05/15 04:54:13;;;;;;;8.90;7.32;;;;;;;;;;5035283;28;20460;-80
2023/05/15 04:56:38;;;;;;;8.25;6.10;;;;;;;;;;5034963;28;20026;-80
2023/05/15 04:59:03;;;;;;;10.82;7.40;;;;;;;;;;5031731;28;20053;-80
2023/05/15 05:01:29;;;;;;;15.50;12.05;;;;;;;;;;5036721;28;20034;-80
2023/05/15 05:03:54;;;;;;;20.85;17.67;;;;;;;;;;5038928;28;20033;-80
2023/05/15 05:06:19;;;;;;;11.25;9.55;;;;;;;;;;5029969;28;20034;-80
2023/05/15 05:08:45;;;;;;;13.18;11.40;;;;;;;;;;5015202;28;20119;-80
2023/05/15 05:11:10;;;;;;;10.05;7.70;;;;;;;;;;5030618;28;20034;-80
2023/05/15 05:13:35;;;;;;;8.75;7.00;;;;;;;;;;5022070;28;20037;-80
2023/05/15 05:16:00;;;;;;;7.50;6.75;;;;;;;;;;5033734;28;20623;-80
2023/05/15 05:18:26;;;;;;;9.40;7.88;;;;;;;;;;5030038;28;20030;-80
2023/05/15 05:20:57;;;;;;;7.65;5.85;;;;;;;;;;5031388;28;20025;-80
2023/05/15 05:23:23;;;;;;;9.10;6.80;;;;;;;;;;5026785;28;20025;-80
2023/05/15 05:25:48;;;;;;;8.82;6.47;;;;;;;;;;5031069;28;20030;-80
2023/05/15 05:28:13;;;;;;;9.88;6.55;;;;;;;;;;5027358;28;20388;-80
2023/05/15 05:30:38;;;;;;;7.07;6.20;;;;;;;;;;5032019;28;20514;-80
2023/05/15 05:33:04;;;;;;;8.30;6.97;;;;;;;;;;5032869;28;20037;-80
2023/05/15 05:35:29;;;;;;;8.68;6.50;;;;;;;;;;5033072;28;20037;-80
2023/05/15 05:37:54;;;;;;;8.20;6.13;;;;;;;;;;5020449;28;20033;-80
2023/05/15 05:40:19;;;;;;;7.47;6.47;;;;;;;;;;5032560;28;20377;-81
2023/05/15 05:42:45;;;;;;;7.03;5.70;;;;;;;;;;5029723;28;20040;-80
2023/05/15 05:45:10;;;;;;;8.93;7.25;;;;;;;;;;5030997;28;20114;-78
2023/05/15 05:47:35;;;;;;;9.27;6.93;;;;;;;;;;5035257;28;20052;-79
2023/05/15 05:50:01;;;;;;;8.13;6.63;;;;;;;;;;5033835;28;20037;-78
2023/05/15 05:52:27;;;;;;;12.98;7.18;;;;;;;;;;5032377;28;20037;-78
2023/05/15 05:54:53;;;;;;;10.30;6.72;;;;;;;;;;5029496;28;20049;-78
2023/05/15 05:57:18;;;;;;;11.10;7.53;;;;;;;;;;5023229;28;20030;-76
2023/05/15 05:59:44;;;;;;;9.10;7.70;;;;;;;;;;5023582;28;20061;-76
2023/05/15 06:02:10;;;;;;;9.40;7.05;;;;;;;;;;5014325;28;20528;-76
2023/05/15 06:04:35;;;;;;;8.27;7.22;;;;;;;;;;5019542;28;20164;-76
2023/05/15 06:07:00;;;;;;;8.80;7.03;;;;;;;;;;5019900;28;20404;-76
2023/05/15 06:09:26;;;;;;;7.97;6.97;;;;;;;;;;5028148;28;20419;-76
2023/05/15 06:11:51;;;;;;;8.05;7.25;;;;;;;;;;5023447;28;20026;-76
2023/05/15 06:14:16;;;;;;;9.45;7.35;;;;;;;;;;5023005;28;20060;-76
2023/05/15 06:16:42;;;;;;;9.55;7.15;;;;;;;;;;5022757;28;20471;-76
2023/05/15 06:19:07;;;;;;;12.20;8.13;;;;;;;;;;5020641;28;20034;-76
2023/05/15 06:21:33;;;;;;;8.88;7.47;;;;;;;;;;5021479;28;20037;-76
2023/05/15 06:23:58;;;;;;;9.23;7.32;;;;;;;;;;5022501;28;20115;-76
2023/05/15 06:26:24;;;;;;;10.82;7.95;;;;;;;;;;5022274;28;20029;-76
2023/05/15 06:28:49;;;;;;;9.27;8.38;;;;;;;;;;5024776;28;20052;-76
2023/05/15 06:31:16;;;;;;;8.93;7.80;;;;;;;;;;5024569;28;20090;-76
2023/05/15 06:33:41;;;;;;;10.13;7.55;;;;;;;;;;5025868;28;20675;-76
2023/05/15 06:36:06;;;;;;;8.98;7.72;;;;;;;;;;5025004;28;20108;-76
2023/05/15 06:38:31;;;;;;;8.93;7.03;;;;;;;;;;5006842;28;20044;-76
2023/05/15 06:40:57;;;;;;;9.90;8.70;;;;;;;;;;5023674;28;20108;-76
2023/05/15 06:43:22;;;;;;;8.48;7.45;;;;;;;;;;5016833;28;20029;-76
2023/05/15 06:45:48;;;;;;;9.10;8.18;;;;;;;;;;5006599;28;20026;-76
2023/05/15 06:48:13;;;;;;;9.48;7.82;;;;;;;;;;5021794;28;20614;-76
2023/05/15 06:50:38;;;;;;;9.90;7.82;;;;;;;;;;5018424;28;20041;-76
2023/05/15 06:53:03;;;;;;;8.90;7.53;;;;;;;;;;5026397;28;20032;-77
2023/05/15 06:55:29;;;;;;;9.80;7.43;;;;;;;;;;5009294;28;20029;-76
2023/05/15 06:57:54;;;;;;;9.32;7.78;;;;;;;;;;5005560;28;20025;-76
2023/05/15 07:00:19;;;;;;;10.23;7.65;;;;;;;;;;5020319;28;20036;-76
2023/05/15 07:02:44;;;;;;;11.95;8.00;;;;;;;;;;5024403;28;20041;-77
2023/05/15 07:05:10;;;;;;;10.93;7.60;;;;;;;;;;5020545;28;20088;-76
2023/05/15 07:07:35;;;;;;;9.23;7.50;;;;;;;;;;5027417;28;20029;-77
2023/05/15 07:10:00;;;;;;;8.95;7.60;;;;;;;;;;5023920;28;20385;-77
2023/05/15 07:12:25;;;;;;;9.68;8.63;;;;;;;;;;5020876;28;20045;-76
2023/05/15 07:14:51;;;;;;;12.25;7.60;;;;;;;;;;5020281;28;20109;-76
2023/05/15 07:17:16;;;;;;;10.85;8.05;;;;;;;;;;5019264;28;20026;-76
2023/05/15 07:19:41;;;;;;;10.07;8.23;;;;;;;;;;5023719;28;20041;-76
2023/05/15 07:22:06;;;;;;;10.45;8.45;;;;;;;;;;5006116;28;20115;-76
2023/05/15 07:24:32;;;;;;;9.73;8.48;;;;;;;;;;5021230;28;20041;-76
2023/05/15 07:26:57;;;;;;;12.07;8.02;;;;;;;;;;5016388;28;20026;-76
2023/05/15 07:29:23;;;;;;;12.68;8.13;;;;;;;;;;5024677;28;20029;-76
2023/05/15 07:31:48;;;;;;;12.00;8.25;;;;;;;;;;5023331;28;20033;-76
2023/05/15 07:34:13;;;;;;;8.75;7.63;;;;;;;;;;5020419;28;20021;-76
2023/05/15 07:36:38;;;;;;;9.35;7.60;;;;;;;;;;5025455;28;20029;-76
2023/05/15 07:39:03;;;;;;;9.07;7.45;;;;;;;;;;5023865;28;20423;-76
2023/05/15 07:41:31;;;;;;;9.52;6.93;;;;;;;;;;5020416;28;20115;-77
2023/05/15 07:43:56;;;;;;;9.95;8.30;;;;;;;;;;5001227;28;20044;-76
2023/05/15 07:46:21;;;;;;;8.98;7.85;;;;;;;;;;5024107;28;20037;-76
2023/05/15 07:48:46;;;;;;;11.63;8.40;;;;;;;;;;5024122;28;20030;-76
2023/05/15 07:51:12;;;;;;;12.55;8.20;;;;;;;;;;5020594;28;20507;-76
2023/05/15 07:53:37;;;;;;;11.88;8.18;;;;;;;;;;5022585;28;20128;-76
2023/05/15 07:56:03;;;;;;;8.30;7.38;;;;;;;;;;5020878;28;20025;-76
2023/05/15 07:58:28;;;;;;;8.73;7.80;;;;;;;;;;5020472;28;20026;-76
2023/05/15 08:00:53;;;;;;;10.13;7.75;;;;;;;;;;5023134;28;20026;-76
2023/05/15 08:03:18;;;;;;;10.45;6.95;;;;;;;;;;5024218;28;20025;-76
2023/05/15 08:05:43;;;;;;;9.63;7.90;;;;;;;;;;5021022;28;20083;-76
2023/05/15 08:08:09;;;;;;;11.75;8.10;;;;;;;;;;5021841;28;20034;-76
2023/05/15 08:10:34;;;;;;;10.70;8.70;;;;;;;;;;5028430;23;20567;-75
2023/05/15 08:12:59;;;;;;;10.45;9.35;;;;;;;;;;5066248;28;20241;-75
2023/05/15 08:15:24;;;;;;;12.93;8.52;;;;;;;;;;5065928;28;20024;-75
2023/05/15 08:17:50;;;;;;;10.73;8.38;;;;;;;;;;5062799;28;20029;-75
2023/05/15 08:20:15;;;;;;;9.73;8.70;;;;;;;;;;5066458;28;20561;-75
2023/05/15 08:22:40;;;;;;;15.75;9.43;;;;;;;;;;5060850;28;20656;-75
2023/05/15 08:25:07;;;;;;;10.07;8.82;;;;;;;;;;5066953;28;20035;-75
2023/05/15 08:27:32;;;;;;;10.77;8.65;;;;;;;;;;5067200;28;20033;-75
2023/05/15 08:29:58;;;;;;;11.32;8.77;;;;;;;;;;5067129;28;20041;-75
2023/05/15 08:32:23;;;;;;;9.43;8.43;;;;;;;;;;5060559;28;20103;-75
2023/05/15 08:34:48;;;;;;;10.50;9.40;;;;;;;;;;5064346;28;20502;-75
2023/05/15 08:37:13;;;;;;;11.82;8.07;;;;;;;;;;5060076;28;20086;-75
2023/05/15 08:39:38;;;;;;;10.07;7.35;;;;;;;;;;5062686;28;20661;-75
2023/05/15 08:42:07;;;;;;;10.18;8.05;;;;;;;;;;5065627;28;20074;-75
2023/05/15 08:44:32;;;;;;;10.27;8.05;;;;;;;;;;5062375;28;20040;-76
2023/05/15 08:46:57;;;;;;;9.25;7.97;;;;;;;;;;5062605;28;20040;-75
2023/05/15 08:49:31;;;;;;;10.65;8.05;;;;;;;;;;5061687;28;20050;-76
2023/05/15 08:51:57;;;;;;;10.02;7.15;;;;;;;;;;5059289;28;20038;-75
2023/05/15 08:54:23;;;;;;;8.05;7.22;;;;;;;;;;5062084;28;20037;-75
2023/05/15 08:56:48;;;;;;;8.85;7.10;;;;;;;;;;5061756;28;20140;-75
2023/05/15 08:59:13;;;;;;;8.27;7.38;;;;;;;;;;5063047;28;20054;-75
2023/05/15 09:01:38;;;;;;;9.68;7.68;;;;;;;;;;5058311;28;20429;-75
2023/05/15 09:04:04;;;;;;;8.10;6.30;;;;;;;;;;5063062;28;20047;-75
2023/05/15 09:06:29;;;;;;;12.10;6.95;;;;;;;;;;5059514;28;20090;-75
2023/05/15 09:08:55;;;;;;;7.20;6.20;;;;;;;;;;5064448;28;20044;-76
2023/05/15 09:11:24;;;;;;;7.70;6.20;;;;;;;;;;5042865;28;20045;-75
2023/05/15 09:13:49;;;;;;;8.15;6.07;;;;;;;;;;5067198;28;20040;-75
2023/05/15 09:16:14;;;;;;;11.75;6.22;;;;;;;;;;5067170;28;20030;-76
2023/05/15 09:18:40;;;;;;;7.53;5.35;;;;;;;;;;5065185;28;20108;-76
2023/05/15 09:21:24;;;;;;;10.05;6.07;;;;;;;;;;5065796;28;20039;-76
2023/05/15 09:23:49;;;;;;;7.47;5.47;;;;;;;;;;5062719;28;20029;-76
2023/05/15 09:26:14;;;;;;;10.15;5.80;;;;;;;;;;5065286;28;20075;-76
2023/05/15 09:28:40;;;;;;;6.87;5.90;;;;;;;;;;5066546;28;20534;-76
2023/05/15 09:31:06;;;;;;;8.02;5.78;;;;;;;;;;5068507;28;20289;-76
2023/05/15 09:33:54;;;;;;;6.82;4.90;;;;;;;;;;5067407;28;20042;-76
2023/05/15 09:36:20;;;;;;;6.85;4.97;;;;;;;;;;5069353;28;20495;-76
2023/05/15 09:38:47;;;;;;;9.35;5.47;;;;;;;;;;5062044;28;20048;-76
2023/05/15 09:41:12;;;;;;;6.32;5.05;;;;;;;;;;5047152;28;20040;-76
2023/05/15 09:43:38;;;;;;;7.72;4.82;;;;;;;;;;5046736;28;20037;-76
2023/05/15 09:46:03;;;;;;;7.22;4.57;;;;;;;;;;5065142;28;20053;-76
2023/05/15 09:48:29;;;;;;;6.05;4.57;;;;;;;;;;5066364;28;20037;-76
2023/05/15 09:50:55;;;;;;;11.75;8.23;;;;;;;;;;5064043;28;20063;-76
2023/05/15 09:53:21;;;;;;;7.03;5.10;;;;;;;;;;5063203;28;20483;-75
2023/05/15 09:55:46;;;;;;;10.18;8.05;;;;;;;;;;5065288;28;20028;-76
2023/05/15 09:58:12;;;;;;;6.47;4.20;;;;;;;;;;5068657;28;20029;-76
2023/05/15 10:00:39;;;;;;;6.55;4.38;;;;;;;;;;5063394;28;20035;-76
2023/05/15 10:03:05;;;;;;;6.28;3.97;;;;;;;;;;5062338;28;20032;-76
2023/05/15 10:05:30;;;;;;;5.72;3.83;;;;;;;;;;5066132;28;20078;-76
2023/05/15 10:07:56;;;;;;;5.72;3.53;;;;;;;;;;5067928;28;20032;-76
2023/05/15 10:10:22;;;;;;;7.50;3.80;;;;;;;;;;5063076;28;20110;-76
2023/05/15 10:12:49;;;;;;;5.40;3.60;;;;;;;;;;5069622;28;20023;-76
2023/05/15 10:15:14;;;;;;;5.13;4.00;;;;;;;;;;5063787;28;20056;-75
2023/05/15 10:17:41;;;;;;;6.20;3.33;;;;;;;;;;5060881;28;20463;-75
2023/05/15 10:20:06;;;;;;;6.47;3.72;;;;;;;;;;5064616;28;20047;-75
2023/05/15 10:22:35;;;;;;;5.55;3.35;;;;;;;;;;5064255;28;20033;-76
2023/05/15 10:25:06;;;;;;;6.55;3.38;;;;;;;;;;5066963;28;20032;-76
2023/05/15 10:27:34;;;;;;;7.03;3.45;;;;;;;;;;5060892;28;20098;-76
2023/05/15 10:30:01;;;;;;;8.38;3.20;;;;;;;;;;5049595;28;20048;-76
2023/05/15 10:32:26;;;;;;;4.40;3.13;;;;;;;;;;5062252;28;20400;-75
2023/05/15 10:34:52;;;;;;;5.18;3.92;;;;;;;;;;5064550;28;20040;-76
2023/05/15 10:37:18;;;;;;;6.78;3.45;;;;;;;;;;5063139;28;20031;-76
2023/05/15 10:39:44;;;;;;;6.43;3.70;;;;;;;;;;5064307;28;20037;-76
2023/05/15 10:42:11;;;;;;;5.68;3.28;;;;;;;;;;5060004;28;20043;-75
2023/05/15 10:44:36;;;;;;;5.47;4.18;;;;;;;;;;5065741;28;20087;-76
2023/05/15 10:47:02;;;;;;;5.43;4.17;;;;;;;;;;5051192;28;20025;-76
2023/05/15 10:49:27;;;;;;;4.78;3.58;;;;;;;;;;5067965;28;20298;-76
2023/05/15 10:51:53;;;;;;;8.20;5.32;;;;;;;;;;5046017;28;20029;-76
2023/05/15 10:54:18;;;;;;;4.93;3.67;;;;;;;;;;5062515;28;20028;-76
2023/05/15 10:56:43;;;;;;;5.97;3.85;;;;;;;;;;5062378;28;20120;-76
2023/05/15 10:59:09;;;;;;;5.22;3.67;;;;;;;;;;5068637;28;20094;-76
2023/05/15 11:01:36;;;;;;;6.53;3.22;;;;;;;;;;5063922;28;20025;-76
2023/05/15 11:04:06;;;;;;;7.25;3.63;;;;;;;;;;5061272;28;20038;-76
2023/05/15 11:06:31;;;;;;;5.53;4.30;;;;;;;;;;5046533;28;20043;-76
2023/05/15 11:09:15;;;;;;;5.75;3.55;;;;;;;;;;5063082;28;20116;-76
2023/05/15 11:11:55;;;;;;;4.75;3.30;;;;;;;;;;5063577;28;20052;-76
2023/05/15 11:14:21;;;;;;;6.10;5.13;;;;;;;;;;5064002;28;20031;-76
2023/05/15 11:16:53;;;;;;;10.57;9.48;;;;;;;;;;5063366;28;20029;-76
2023/05/15 11:19:21;;;;;;;9.68;8.68;;;;;;;;;;5061016;28;20487;-76
2023/05/15 11:21:55;;;;;;;6.35;4.30;;;;;;;;;;5063996;28;20052;-76
2023/05/15 11:24:25;;;;;;;8.50;3.78;;;;;;;;;;5062899;28;20078;-76
2023/05/15 11:26:51;;;;;;;5.68;3.40;;;;;;;;;;5060653;28;20033;-75
2023/05/15 11:29:17;;;;;;;4.30;3.30;;;;;;;;;;5066227;28;20083;-76
2023/05/15 11:31:42;;;;;;;8.05;6.90;;;;;;;;;;5063385;28;20028;-76
2023/05/15 11:34:07;;;;;;;4.85;4.03;;;;;;;;;;5062247;28;20036;-76
2023/05/15 11:36:33;;;;;;;4.43;3.30;;;;;;;;;;5064571;28;20032;-76
2023/05/15 11:38:58;;;;;;;7.18;5.03;;;;;;;;;;5063388;28;20052;-76
2023/05/15 11:41:30;;;;;;;5.40;3.42;;;;;;;;;;5063228;28;20033;-75
2023/05/15 11:43:56;;;;;;;7.70;4.15;;;;;;;;;;5063724;28;20111;-76
2023/05/15 11:46:21;;;;;;;9.52;6.53;;;;;;;;;;5066643;28;20111;-76
2023/05/15 11:48:47;;;;;;;6.93;3.78;;;;;;;;;;5068706;28;20444;-76
2023/05/15 11:51:20;;;;;;;6.32;3.42;;;;;;;;;;5061541;28;20067;-76
2023/05/15 11:53:45;;;;;;;5.40;3.60;;;;;;;;;;5062182;28;20111;-76
2023/05/15 11:56:17;;;;;;;7.45;4.13;;;;;;;;;;5063250;28;20602;-76
2023/05/15 11:58:43;;;;;;;7.75;4.22;;;;;;;;;;5066114;28;20494;-76
2023/05/15 12:01:09;;;;;;;6.45;4.50;;;;;;;;;;5066897;28;20027;-76
2023/05/15 12:03:34;;;;;;;4.68;3.22;;;;;;;;;;5059231;28;20032;-76
2023/05/15 12:06:00;;;;;;;7.03;3.33;;;;;;;;;;5066617;28;20028;-76
2023/05/15 12:08:32;;;;;;;5.82;2.78;;;;;;;;;;5044659;28;20029;-76
2023/05/15 12:10:57;;;;;;;;;;;;;;;;;;5060206;28;20029;-76
2023/05/15 12:13:23;;;;;;;5.38;3.45;;;;;;;;;;5062262;28;19909;-76
2023/05/15 12:15:48;;;;;;;6.43;3.45;;;;;;;;;;5067083;28;20024;-76
2023/05/15 12:18:13;;;;;;;4.30;3.20;;;;;;;;;;5062826;28;20061;-76
2023/05/15 12:20:45;;;;;;;6.28;3.20;;;;;;;;;;5060590;28;20063;-76
2023/05/15 12:23:13;;;;;;;4.85;3.63;;;;;;;;;;5063543;28;20399;-76
2023/05/15 12:25:39;;;;;;;4.85;3.10;;;;;;;;;;5063590;28;20460;-76
2023/05/15 12:28:04;;;;;;;4.32;2.97;;;;;;;;;;5064968;28;20067;-76
2023/05/15 12:30:30;;;;;;;4.70;3.00;;;;;;;;;;5062966;28;20043;-76
2023/05/15 12:33:00;;;;;;;5.72;3.58;;;;;;;;;;5062301;28;20033;-76
2023/05/15 12:35:25;;;;;;;6.30;3.15;;;;;;;;;;5060745;28;20029;-76
2023/05/15 12:37:50;;;;;;;5.28;3.08;;;;;;;;;;5067852;28;20039;-75
2023/05/15 12:40:19;;;;;;;6.03;3.80;;;;;;;;;;5058458;28;20041;-76
2023/05/15 12:42:44;;;;;;;6.50;4.10;;;;;;;;;;5063734;28;20372;-76
2023/05/15 12:45:13;;;;;;;5.45;3.78;;;;;;;;;;5064222;28;20082;-76
2023/05/15 12:47:38;;;;;;;5.32;3.67;;;;;;;;;;5062015;28;20037;-76
2023/05/15 12:50:11;;;;;;;5.10;4.00;;;;;;;;;;5064751;28;20036;-76
2023/05/15 12:52:36;;;;;;;4.65;3.45;;;;;;;;;;5065127;28;20108;-76
2023/05/15 12:55:02;;;;;;;5.87;3.53;;;;;;;;;;5069750;28;20542;-76
2023/05/15 12:57:27;;;;;;;6.75;3.05;;;;;;;;;;5068374;28;20287;-75
2023/05/15 12:59:53;;;;;;;26.27;4.90;;;;;;;;;;5071134;28;20056;-75
2023/05/15 13:02:18;;;;;;;6.95;3.50;;;;;;;;;;5062328;28;20041;-76
2023/05/15 13:04:45;;;;;;;5.27;3.30;;;;;;;;;;5046982;28;20091;-75
2023/05/15 13:07:15;;;;;;;5.40;3.58;;;;;;;;;;5064042;28;20360;-75
2023/05/15 13:09:40;;;;;;;5.10;3.97;;;;;;;;;;5064489;28;20098;-75
2023/05/15 13:12:05;;;;;;;5.95;4.15;;;;;;;;;;5060758;28;20488;-75
2023/05/15 13:14:31;;;;;;;6.35;3.88;;;;;;;;;;5065974;28;20097;-75
2023/05/15 13:16:58;;;;;;;8.13;5.13;;;;;;;;;;5044935;28;20029;-75
2023/05/15 13:19:23;;;;;;;6.43;5.13;;;;;;;;;;5063679;28;20475;-76
2023/05/15 13:21:49;;;;;;;5.38;4.30;;;;;;;;;;5065633;28;20041;-75
2023/05/15 13:24:15;;;;;;;5.32;3.72;;;;;;;;;;5062562;28;20062;-75
2023/05/15 13:26:40;;;;;;;6.43;4.75;;;;;;;;;;5065778;28;20063;-75
2023/05/15 13:29:05;;;;;;;7.05;4.68;;;;;;;;;;5066277;28;20065;-75
2023/05/15 13:31:31;;;;;;;4.60;3.80;;;;;;;;;;5047771;28;20171;-75
2023/05/15 13:33:56;;;;;;;4.78;3.10;;;;;;;;;;5065031;28;20032;-75
2023/05/15 13:36:21;;;;;;;5.13;3.50;;;;;;;;;;5062736;28;20028;-76
2023/05/15 13:38:46;;;;;;;6.15;3.78;;;;;;;;;;5068122;28;20328;-76
2023/05/15 13:41:11;;;;;;;5.43;3.08;;;;;;;;;;5062375;28;20087;-76
2023/05/15 13:43:37;;;;;;;4.07;3.17;;;;;;;;;;5066538;28;20081;-76
2023/05/15 13:46:02;;;;;;;5.33;2.90;;;;;;;;;;5062709;28;20301;-76
2023/05/15 13:48:28;;;;;;;3.75;2.60;;;;;;;;;;5067902;28;20289;-76
2023/05/15 13:50:54;;;;;;;5.45;3.30;;;;;;;;;;5062555;28;20029;-76
2023/05/15 13:53:20;;;;;;;4.32;2.80;;;;;;;;;;5063765;28;20041;-76
2023/05/15 13:55:45;;;;;;;7.05;2.47;;;;;;;;;;5051590;28;20024;-76
2023/05/15 13:58:11;;;;;;;4.15;2.45;;;;;;;;;;5066195;28;20032;-76
2023/05/15 14:00:36;;;;;;;4.63;2.60;;;;;;;;;;5067393;28;20152;-76
2023/05/15 14:03:02;;;;;;;5.03;2.72;;;;;;;;;;5065107;28;20027;-76
2023/05/15 14:05:28;;;;;;;5.55;3.20;;;;;;;;;;5072591;28;20032;-76
2023/05/15 14:07:53;;;;;;;4.93;2.55;;;;;;;;;;5065338;28;20025;-76
2023/05/15 14:10:18;;;;;;;5.23;2.60;;;;;;;;;;5064465;28;20492;-76
2023/05/15 14:12:45;;;;;;;5.05;2.90;;;;;;;;;;5062894;28;20846;-76
2023/05/15 14:15:10;;;;;;;4.78;2.50;;;;;;;;;;5083787;22;20517;-77
2023/05/15 14:17:36;;;;;;;7.38;2.70;;;;;;;;;;5073395;28;20029;-78
2023/05/15 14:20:01;;;;;;;5.93;3.03;;;;;;;;;;5071864;28;20146;-76
2023/05/15 14:22:26;;;;;;;4.93;2.97;;;;;;;;;;5068126;28;20363;-78
2023/05/15 14:24:51;;;;;;;5.35;2.80;;;;;;;;;;5047808;28;20032;-78
2023/05/15 14:27:17;;;;;;;7.63;3.50;;;;;;;;;;5068586;28;20526;-77
2023/05/15 14:29:43;;;;;;;4.95;2.90;;;;;;;;;;5073791;28;20064;-78
2023/05/15 14:32:09;;;;;;;5.45;3.28;;;;;;;;;;5047953;28;20032;-77
2023/05/15 14:34:34;;;;;;;4.30;2.88;;;;;;;;;;5063370;28;20108;-78